• Join FlightAware (Why Join?)
  • Login
  • US Flag 
05:14PM EDT


 

Airport Tracker/Info


-or-


 

Live Flight TrackerFlight Track Log ✈ THY9 ✈ 24-Apr-2013 ✈ LTBA / IST - KLAX

Flight Track Log - Related Links

Times and Time Zones

All times are in EDT time to prevent confusion due to time zone crossing. See the THY9 flight status page for this flight to view local times or setup timezone preferences in your user account.

Time Position Orientation Groundspeed Altitude Reporting Facility
EDT Latitude Longitude Course Direction KTS MPH feet Rate Location/Type
06:09AM 41.0680 28.7910 180° South 248 285 2,400  Level FlightAware
06:10AM 41.0970 28.7670 328° Northwest 256 295 3,500 2,520 Climbing FlightAware
06:11AM 41.1370 28.7320 327° Northwest 268 308 5,400 2,940 Climbing FlightAware
06:11AM 41.1650 28.7080 327° Northwest 271 312 6,700 2,880 Climbing FlightAware
06:11AM 41.1880 28.6880 327° Northwest 272 313 7,800 2,880 Climbing FlightAware
06:12AM 41.2140 28.6660 328° Northwest 267 307 8,900 2,880 Climbing FlightAware
06:12AM 41.2390 28.6450 328° Northwest 270 311 10,000 1,740 Climbing FlightAware
06:13AM 41.2840 28.6060 327° Northwest 308 354 10,800 1,320 Climbing FlightAware
06:14AM 41.3470 28.5530 328° Northwest 352 405 11,900 1,860 Climbing FlightAware
06:14AM 41.3960 28.5100 327° Northwest 367 422 13,300 2,460 Climbing FlightAware
06:15AM 41.4690 28.4470 327° Northwest 370 426 15,400 2,400 Climbing FlightAware
06:16AM 41.5300 28.3950 327° Northwest 386 444 16,900 2,160 Climbing FlightAware
06:16AM 41.5820 28.3500 327° Northwest 387 445 18,100 2,040 Climbing FlightAware
06:17AM 41.6580 28.2840 327° Northwest 403 464 19,800 1,860 Climbing FlightAware
06:18AM 41.7180 28.2320 327° Northwest 405 466 20,900 1,800 Climbing FlightAware
06:19AM 41.7950 28.1650 327° Northwest 410 472 22,400 1,800 Climbing FlightAware
06:19AM 41.8600 28.1080 327° Northwest 426 490 23,500 1,500 Climbing FlightAware
06:20AM 41.9370 28.0410 327° Northwest 429 494 24,600 1,500 Climbing FlightAware
06:20AM 41.9870 27.9970 327° Northwest 441 507 25,400 1,380 Climbing FlightAware
06:21AM 42.0720 27.9280 329° Northwest 450 518 26,500 1,320 Climbing FlightAware
06:22AM 42.1560 27.8610 329° Northwest 458 527 27,500 1,260 Climbing FlightAware
06:23AM 42.2320 27.7990 329° Northwest 466 536 28,300 1,080 Climbing FlightAware
06:23AM 42.3050 27.7390 329° Northwest 474 545 29,000 1,080 Climbing FlightAware
06:24AM 42.3920 27.6670 329° Northwest 480 552 29,900 1,260 Climbing FlightAware
06:25AM 42.4630 27.6090 329° Northwest 479 551 30,800 1,080 Climbing FlightAware
06:26AM 42.5490 27.5380 329° Northwest 483 556 31,500 840 Climbing FlightAware
06:26AM 42.6270 27.4700 327° Northwest 487 560 32,000 300 Climbing FlightAware
06:27AM 42.7100 27.3920 325° Northwest 486 559 32,000  Level FlightAware
06:28AM 42.7810 27.3260 326° Northwest 485 558 32,000  Level FlightAware
06:28AM 42.8600 27.2540 326° Northwest 484 557 32,000  Level FlightAware
06:29AM 42.9410 27.1780 326° Northwest 484 557 32,000  Level FlightAware
06:30AM 43.0050 27.1190 326° Northwest 484 557 32,000  Level FlightAware
06:30AM 43.0930 27.0370 326° Northwest 484 557 32,000  Level FlightAware
06:31AM 43.1550 26.9800 326° Northwest 484 557 32,000  Level FlightAware
06:32AM 43.2260 26.9150 326° Northwest 483 556 32,000  Level FlightAware
06:33AM 43.3250 26.8240 326° Northwest 484 557 32,000  Level FlightAware
06:33AM 43.3950 26.7590 326° Northwest 484 557 32,000  Level FlightAware
06:34AM 43.5000 26.6620 326° Northwest 485 558 32,000  Level FlightAware
06:35AM 43.5770 26.5910 326° Northwest 484 557 32,000  Level FlightAware
06:36AM 43.6620 26.5130 326° Northwest 484 557 32,000  Level FlightAware
06:36AM 43.7410 26.4410 327° Northwest 484 557 32,000  Level FlightAware
06:37AM 43.8120 26.3760 327° Northwest 484 557 32,000  Level FlightAware
06:38AM 43.8860 26.3070 326° Northwest 485 558 32,000  Level FlightAware
06:38AM 43.9580 26.2400 326° Northwest 485 558 32,000  Level FlightAware
06:39AM 44.0390 26.1510 322° Northwest 487 560 32,000  Level FlightAware
06:40AM 44.0980 26.0780 318° Northwest 487 560 32,000  Level FlightAware
06:40AM 44.1720 25.9860 318° Northwest 485 558 32,000  Level FlightAware
06:41AM 44.2530 25.8860 319° Northwest 485 558 32,000  Level FlightAware
06:42AM 44.3260 25.7940 318° Northwest 485 558 32,000  Level FlightAware
06:42AM 44.3900 25.7140 318° Northwest 483 556 32,000  Level FlightAware
06:43AM 44.4550 25.6320 318° Northwest 482 555 32,000  Level FlightAware
06:44AM 44.5330 25.5340 318° Northwest 482 555 32,000  Level FlightAware
06:45AM 44.6040 25.4450 318° Northwest 482 555 32,000  Level FlightAware
06:45AM 44.6780 25.3510 318° Northwest 480 552 32,000  Level FlightAware
06:46AM 44.7430 25.2670 317° Northwest 480 552 32,000  Level FlightAware
06:47AM 44.8130 25.1780 318° Northwest 479 551 32,000  Level FlightAware
06:47AM 44.8860 25.0850 318° Northwest 479 551 32,000  Level FlightAware
06:48AM 44.9520 25.0010 318° Northwest 478 550 32,000  Level FlightAware
06:49AM 45.0180 24.9150 317° Northwest 477 549 32,000  Level FlightAware
06:49AM 45.0790 24.8360 318° Northwest 477 549 32,000  Level FlightAware
06:50AM 45.1540 24.7380 317° Northwest 478 550 32,000  Level FlightAware
06:51AM 45.2190 24.6540 318° Northwest 477 549 32,000  Level FlightAware
06:52AM 45.2950 24.5550 318° Northwest 474 545 32,000  Level FlightAware
06:52AM 45.3610 24.4680 317° Northwest 476 548 32,000  Level FlightAware
06:53AM 45.4270 24.3810 317° Northwest 478 550 32,000  Level FlightAware
06:54AM 45.4820 24.3080 317° Northwest 476 548 32,000  Level FlightAware
06:54AM 45.5600 24.2050 317° Northwest 474 545 32,000  Level FlightAware
06:55AM 45.6290 24.1130 317° Northwest 471 542 32,000  Level FlightAware
06:56AM 45.6980 24.0220 317° Northwest 470 541 32,000  Level FlightAware
06:57AM 45.7480 23.9550 317° Northwest 471 542 32,000  Level FlightAware
06:57AM 45.8280 23.8470 317° Northwest 472 543 32,000  Level FlightAware
06:58AM 45.8940 23.7580 317° Northwest 473 544 32,000  Level FlightAware
06:59AM 45.9580 23.6720 317° Northwest 473 544 32,000  Level FlightAware
06:59AM 46.0340 23.5680 316° Northwest 471 542 32,000  Level FlightAware
07:00AM 46.0890 23.4920 316° Northwest 469 540 32,000  Level FlightAware
07:01AM 46.1720 23.3790 317° Northwest 470 541 32,000  Level FlightAware
07:01AM 46.2210 23.3240 322° Northwest 471 542 32,000  Level FlightAware
07:02AM 46.3040 23.2580 331° Northwest 472 543 32,000  Level FlightAware
07:03AM 46.3820 23.1920 330° Northwest 473 544 32,000  Level FlightAware
07:03AM 46.4630 23.1190 328° Northwest 472 543 32,000  Level FlightAware
07:04AM 46.5390 23.0490 328° Northwest 471 542 32,000  Level FlightAware
07:05AM 46.6130 22.9820 328° Northwest 469 540 32,000  Level FlightAware
07:06AM 46.6930 22.9140 330° Northwest 467 537 32,000  Level FlightAware
07:06AM 46.7700 22.8500 330° Northwest 466 536 32,000  Level FlightAware
07:07AM 46.8360 22.7930 329° Northwest 464 534 32,000  Level FlightAware
07:08AM 46.9280 22.7140 330° Northwest 465 535 32,000  Level FlightAware
07:08AM 47.0050 22.6480 330° Northwest 463 533 32,000  Level FlightAware
07:09AM 47.1070 22.5590 329° Northwest 464 534 32,000  Level FlightAware
07:10AM 47.1750 22.5000 329° Northwest 464 534 32,000  Level FlightAware
07:11AM 47.2820 22.4070 329° Northwest 464 534 32,000  Level FlightAware
07:12AM 47.3690 22.3310 329° Northwest 464 534 32,000  Level FlightAware
07:12AM 47.4440 22.2650 329° Northwest 456 525 32,000  Level FlightAware
07:13AM 47.5270 22.1910 329° Northwest 456 525 32,000  Level FlightAware
07:14AM 47.6040 22.1350 334° Northwest 451 519 32,000  Level FlightAware
07:14AM 47.6930 22.0820 338° Northwest 457 526 32,000  Level FlightAware
07:15AM 47.7680 22.0330 336° Northwest 457 526 32,000  Level FlightAware
07:16AM 47.8440 21.9820 336° Northwest 457 526 32,000  Level FlightAware
07:17AM 47.9330 21.9230 336° Northwest 458 527 32,000  Level FlightAware
07:17AM 48.0140 21.8720 337° Northwest 458 527 32,000  Level FlightAware
07:18AM 48.1020 21.8160 337° Northwest 457 526 32,000  Level FlightAware
07:19AM 48.1820 21.7650 337° Northwest 456 525 32,000  Level FlightAware
07:19AM 48.2670 21.7110 337° Northwest 455 524 32,000  Level FlightAware
07:20AM 48.3450 21.6610 337° Northwest 455 524 32,000  Level FlightAware
07:21AM 48.4230 21.6110 337° Northwest 456 525 32,000  Level FlightAware
07:21AM 48.5120 21.5530 337° Northwest 452 520 32,000  Level FlightAware
07:22AM 48.5850 21.4940 332° Northwest 454 522 32,000  Level FlightAware
07:23AM 48.6530 21.4170 323° Northwest 454 522 32,000  Level FlightAware
07:24AM 48.7260 21.3270 321° Northwest 455 524 32,000  Level FlightAware
07:24AM 48.7900 21.2470 321° Northwest 455 524 32,000  Level FlightAware
07:25AM 48.8630 21.1580 321° Northwest 454 522 32,000  Level FlightAware
07:26AM 48.9290 21.0780 321° Northwest 457 526 32,000  Level FlightAware
07:26AM 48.9940 20.9970 321° Northwest 455 524 32,000  Level FlightAware
07:27AM 49.0660 20.9070 321° Northwest 456 525 32,000  Level FlightAware
07:28AM 49.1310 20.8260 321° Northwest 457 526 32,000  Level FlightAware
07:28AM 49.2070 20.7310 321° Northwest 456 525 32,000  Level FlightAware
07:29AM 49.2720 20.6480 320° Northwest 457 526 32,000  Level FlightAware
07:30AM 49.3380 20.5660 321° Northwest 455 524 32,000  Level FlightAware
07:31AM 49.4090 20.4760 320° Northwest 449 517 32,000  Level FlightAware
07:31AM 49.4690 20.3990 320° Northwest 446 513 32,000  Level FlightAware
07:32AM 49.5360 20.3140 321° Northwest 448 516 32,000  Level FlightAware
07:33AM 49.6070 20.2220 320° Northwest 447 514 32,000  Level FlightAware
07:33AM 49.6690 20.1420 320° Northwest 447 514 32,000  Level FlightAware
07:34AM 49.7240 20.0710 320° Northwest 445 512 32,000  Level FlightAware
07:35AM 49.8060 19.9650 320° Northwest 445 512 32,000  Level FlightAware
07:35AM 49.8750 19.8750 320° Northwest 444 511 32,000  Level FlightAware
07:36AM 49.9370 19.7930 320° Northwest 446 513 32,000  Level FlightAware
07:37AM 50.0090 19.6990 320° Northwest 445 512 32,000  Level FlightAware
07:38AM 50.0730 19.6150 320° Northwest 444 511 32,000  Level FlightAware
07:38AM 50.1350 19.5330 320° Northwest 445 512 32,000  Level FlightAware
07:39AM 50.2040 19.4410 320° Northwest 444 511 32,000  Level FlightAware
07:40AM 50.2670 19.3580 320° Northwest 443 510 32,000  Level FlightAware
07:40AM 50.3290 19.2740 319° Northwest 443 510 32,000  Level FlightAware
07:41AM 50.3990 19.1800 319° Northwest 443 510 32,000  Level FlightAware
07:42AM 50.4620 19.0950 319° Northwest 443 510 32,000  Level FlightAware
07:42AM 50.5300 19.0040 320° Northwest 443 510 32,000  Level FlightAware
07:43AM 50.5920 18.9200 319° Northwest 444 511 32,000  Level FlightAware
07:44AM 50.6530 18.8360 319° Northwest 444 511 32,000  Level FlightAware
07:45AM 50.7230 18.7410 319° Northwest 442 509 32,000  Level FlightAware
07:45AM 50.7850 18.6550 319° Northwest 441 507 32,000  Level FlightAware
07:46AM 50.8560 18.5590 320° Northwest 442 509 32,000  Level FlightAware
07:47AM 50.9180 18.4750 320° Northwest 441 507 32,000  Level FlightAware
07:47AM 50.9810 18.3910 320° Northwest 440 506 32,000  Level FlightAware
07:48AM 51.0480 18.2990 319° Northwest 441 507 32,000  Level FlightAware
07:49AM 51.1100 18.2150 320° Northwest 443 510 32,000  Level FlightAware
07:49AM 51.1810 18.1170 319° Northwest 443 510 32,000  Level FlightAware
07:50AM 51.2430 18.0330 320° Northwest 443 510 32,000  Level FlightAware
07:51AM 51.3050 17.9470 319° Northwest 443 510 32,000  Level FlightAware
07:52AM 51.3720 17.8530 319° Northwest 442 509 32,000  Level FlightAware
07:52AM 51.4340 17.7670 319° Northwest 444 511 32,000  Level FlightAware
07:53AM 51.5040 17.6700 319° Northwest 445 512 32,000  Level FlightAware
07:54AM 51.5680 17.5810 319° Northwest 444 511 32,000  Level FlightAware
07:54AM 51.6300 17.4930 319° Northwest 444 511 32,000  Level FlightAware
07:55AM 51.6970 17.3980 319° Northwest 443 510 32,000  Level FlightAware
07:56AM 51.7540 17.3180 319° Northwest 444 511 32,000  Level FlightAware
07:57AM 51.8360 17.2000 318° Northwest 449 517 32,000  Level FlightAware
07:57AM 51.8990 17.1110 319° Northwest 449 517 32,000  Level FlightAware
07:58AM 51.9640 17.0170 318° Northwest 450 518 32,000  Level FlightAware
07:59AM 52.0320 16.9190 318° Northwest 449 517 32,000  Level FlightAware
07:59AM 52.0980 16.8230 318° Northwest 449 517 32,000  Level FlightAware
08:00AM 52.1590 16.7350 319° Northwest 448 516 32,000  Level FlightAware
08:01AM 52.2210 16.6440 318° Northwest 447 514 32,000  Level FlightAware
08:02AM 52.3140 16.5070 318° Northwest 436 502 32,000  Level FlightAware
08:02AM 52.3580 16.4420 318° Northwest 440 506 32,000  Level FlightAware
08:03AM 52.4300 16.3360 318° Northwest 438 504 32,000  Level FlightAware
08:04AM 52.5030 16.2270 318° Northwest 433 498 32,000  Level FlightAware
08:04AM 52.5610 16.1400 318° Northwest 433 498 32,000  Level FlightAware
08:05AM 52.6210 16.0500 318° Northwest 434 499 32,000  Level FlightAware
08:06AM 52.6880 15.9510 318° Northwest 435 501 32,000  Level FlightAware
08:07AM 52.7470 15.8600 317° Northwest 437 503 32,000  Level FlightAware
08:07AM 52.8070 15.7700 318° Northwest 438 504 32,000  Level FlightAware
08:08AM 52.8740 15.6670 317° Northwest 438 504 32,000  Level FlightAware
08:09AM 52.9260 15.5890 318° Northwest 438 504 32,000  Level FlightAware
08:09AM 52.9990 15.4760 317° Northwest 436 502 32,000  Level FlightAware
08:10AM 53.0460 15.4040 317° Northwest 435 501 32,000  Level FlightAware
08:11AM 53.1250 15.2820 317° Northwest 434 499 32,000  Level FlightAware
08:12AM 53.1920 15.1770 317° Northwest 434 499 32,000  Level FlightAware
08:12AM 53.2480 15.0910 317° Northwest 435 501 32,000  Level FlightAware
08:13AM 53.3060 15.0000 317° Northwest 434 499 32,000  Level FlightAware
08:14AM 53.3740 14.8920 317° Northwest 435 501 32,000  Level FlightAware
08:14AM 53.4320 14.8000 317° Northwest 433 498 32,000  Level FlightAware
08:15AM 53.4960 14.6980 317° Northwest 432 497 32,000  Level FlightAware
08:16AM 53.5530 14.6080 317° Northwest 432 497 32,000  Level FlightAware
08:16AM 53.6110 14.5140 316° Northwest 431 496 32,000  Level FlightAware
08:17AM 53.6750 14.4130 317° Northwest 430 495 32,000  Level FlightAware
08:18AM 53.7310 14.3210 316° Northwest 431 496 32,000  Level FlightAware
08:18AM 53.7930 14.2320 320° Northwest 432 497 32,000  Level FlightAware
08:19AM 53.8640 14.1400 323° Northwest 433 498 32,000  Level FlightAware
08:20AM 53.9280 14.0580 323° Northwest 433 498 32,000  Level FlightAware
08:21AM 53.9920 13.9740 322° Northwest 433 498 32,000  Level FlightAware
08:21AM 54.0630 13.8800 322° Northwest 433 498 32,000  Level FlightAware
08:22AM 54.1270 13.7960 322° Northwest 431 496 32,000  Level FlightAware
08:23AM 54.2000 13.7000 322° Northwest 431 496 32,000  Level FlightAware
08:23AM 54.2610 13.6190 322° Northwest 431 496 32,000  Level FlightAware
08:24AM 54.3240 13.5360 322° Northwest 431 496 32,000  Level FlightAware
08:25AM 54.3980 13.4470 325° Northwest 432 497 32,000  Level FlightAware
08:25AM 54.4640 13.3690 326° Northwest 431 496 32,000  Level FlightAware
08:26AM 54.5310 13.2910 326° Northwest 431 496 32,000  Level FlightAware
08:27AM 54.6070 13.2040 326° Northwest 433 498 32,000  Level FlightAware
08:28AM 54.6740 13.1320 328° Northwest 434 499 32,000  Level FlightAware
08:28AM 54.7490 13.0510 328° Northwest 433 498 32,000  Level FlightAware
08:29AM 54.8170 12.9750 327° Northwest 433 498 32,000  Level FlightAware
08:30AM 54.8920 12.8920 328° Northwest 431 496 32,000  Level FlightAware
08:30AM 54.9600 12.8160 327° Northwest 431 496 32,000  Level FlightAware
08:31AM 55.0110 12.7630 329° Northwest 433 498 32,000  Level FlightAware
08:32AM 55.0820 12.6930 331° Northwest 433 498 32,000  Level FlightAware
08:32AM 55.1520 12.6270 332° Northwest 434 499 32,000  Level FlightAware
08:33AM 55.2270 12.5560 332° Northwest 435 501 32,000  Level FlightAware
08:34AM 55.3000 12.4860 331° Northwest 438 504 32,000  Level FlightAware
08:34AM 55.3650 12.4230 331° Northwest 436 502 32,000  Level FlightAware
08:35AM 55.4450 12.3460 331° Northwest 435 501 32,000  Level FlightAware
08:36AM 55.5190 12.2740 331° Northwest 436 502 32,000  Level FlightAware
08:36AM 55.5980 12.1970 331° Northwest 435 501 32,000  Level FlightAware
08:37AM 55.6750 12.1210 331° Northwest 435 501 32,000  Level FlightAware
08:38AM 55.7490 12.0490 331° Northwest 435 501 32,000  Level FlightAware
08:39AM 55.8220 11.9760 331° Northwest 435 501 32,000  Level FlightAware
08:39AM 55.8920 11.9070 331° Northwest 435 501 32,000  Level FlightAware
08:40AM 55.9690 11.8300 331° Northwest 433 498 32,000  Level FlightAware
08:41AM 56.0370 11.7610 330° Northwest 433 498 32,000 60 Level FlightAware
08:41AM 56.1170 11.6880 333° Northwest 434 499 32,100  Climbing FlightAware
08:42AM 56.1860 11.6110 328° Northwest 427 491 32,000 -120 Descending FlightAware
08:43AM 56.2660 11.5300 331° Northwest 436 502 32,000 60 Level FlightAware
08:43AM 56.3330 11.4650 332° Northwest 430 495 32,100  Climbing FlightAware
08:44AM 56.4030 11.3940 331° Northwest 434 499 32,000 -120 Descending FlightAware
08:45AM 56.4800 11.3120 330° Northwest 429 494 32,000  Level FlightAware
08:46AM 56.5510 11.2360 329° Northwest 431 496 32,000  Level FlightAware
08:46AM 56.6270 11.1560 330° Northwest 430 495 32,000  Level FlightAware
08:47AM 56.6960 11.0850 331° Northwest 429 494 32,000  Level FlightAware
08:48AM 56.7660 11.0120 330° Northwest 429 494 32,000  Level FlightAware
08:48AM 56.8410 10.9330 330° Northwest 428 493 32,000  Level FlightAware
08:49AM 56.9090 10.8600 330° Northwest 428 493 32,000  Level FlightAware
08:50AM 56.9880 10.7760 330° Northwest 429 494 32,000  Level FlightAware
08:50AM 57.0570 10.7030 330° Northwest 429 494 32,000  Level FlightAware
08:51AM 57.1240 10.6310 330° Northwest 428 493 32,000  Level FlightAware
08:52AM 57.2000 10.5500 330° Northwest 427 491 32,000  Level FlightAware
08:53AM 57.2680 10.4760 330° Northwest 424 488 32,000  Level FlightAware
08:53AM 57.3450 10.3910 329° Northwest 424 488 32,000  Level FlightAware
08:54AM 57.4130 10.3180 330° Northwest 422 486 32,000  Level FlightAware
08:55AM 57.4790 10.2450 329° Northwest 422 486 32,000  Level FlightAware
08:55AM 57.5530 10.1630 329° Northwest 421 484 32,000  Level FlightAware
08:56AM 57.6190 10.0900 329° Northwest 421 484 32,000  Level FlightAware
08:57AM 57.6870 10.0150 329° Northwest 421 484 32,000  Level FlightAware
08:57AM 57.7640 9.9290 329° Northwest 420 483 32,000  Level FlightAware
08:58AM 57.8300 9.8540 329° Northwest 418 481 32,000  Level FlightAware
08:59AM 57.9030 9.7720 329° Northwest 417 480 32,000  Level FlightAware
09:00AM 57.9710 9.6950 329° Northwest 416 479 32,000  Level FlightAware
09:00AM 58.0340 9.6230 329° Northwest 416 479 32,000  Level FlightAware
09:01AM 58.1090 9.5360 329° Northwest 417 480 32,000  Level FlightAware
09:02AM 58.1820 9.4530 329° Northwest 418 481 32,000  Level FlightAware
09:02AM 58.2500 9.3740 329° Northwest 418 481 32,000  Level FlightAware
09:03AM 58.3120 9.3020 329° Northwest 419 482 32,000  Level FlightAware
09:04AM 58.3890 9.2120 329° Northwest 421 484 32,000  Level FlightAware
09:04AM 58.4570 9.1330 329° Northwest 422 486 32,000  Level FlightAware
09:05AM 58.5220 9.0570 329° Northwest 422 486 32,000  Level FlightAware
09:06AM 58.5920 8.9740 328° Northwest 426 490 32,000  Level FlightAware
09:07AM 58.6620 8.8910 328° Northwest 427 491 32,000  Level FlightAware
09:07AM 58.7320 8.8070 328° Northwest 428 493 32,000  Level FlightAware
09:08AM 58.8060 8.7190 328° Northwest 428 493 32,000  Level FlightAware
09:09AM 58.8730 8.6370 328° Northwest 429 494 32,000  Level FlightAware
09:09AM 58.9500 8.5440 328° Northwest 428 493 32,000  Level FlightAware
09:10AM 59.0150 8.4650 328° Northwest 430 495 32,000  Level FlightAware
09:11AM 59.0870 8.3770 328° Northwest 427 491 32,000  Level FlightAware
09:11AM 59.1490 8.3000 328° Northwest 428 493 32,000  Level FlightAware
09:12AM 59.2200 8.2130 328° Northwest 428 493 32,000  Level FlightAware
09:13AM 59.3000 8.1140 328° Northwest 428 493 32,000  Level FlightAware
09:14AM 59.3670 8.0300 327° Northwest 429 494 32,000  Level FlightAware
09:14AM 59.4410 7.9380 328° Northwest 427 491 32,000  Level FlightAware
09:15AM 59.5080 7.8530 327° Northwest 423 487 32,000  Level FlightAware
09:16AM 59.5730 7.7710 327° Northwest 418 481 32,000  Level FlightAware
09:16AM 59.6500 7.6850 331° Northwest 429 494 32,000  Level FlightAware
09:17AM 59.7220 7.6160 334° Northwest 426 490 32,000  Level FlightAware
09:18AM 59.7990 7.5410 334° Northwest 422 486 32,000  Level FlightAware
09:18AM 59.8700 7.4740 335° Northwest 421 484 32,000  Level FlightAware
09:19AM 59.9500 7.3960 334° Northwest 419 482 32,000  Level FlightAware
09:20AM 60.0190 7.3300 334° Northwest 421 484 32,000  Level FlightAware
09:21AM 60.0890 7.2620 334° Northwest 419 482 32,000  Level FlightAware
09:21AM 60.1630 7.1900 334° Northwest 416 479 32,000 60 Level FlightAware
09:22AM 60.2140 7.1400 334° Northwest 416 479 32,100 480 Climbing FlightAware
09:23AM 60.3000 7.0540 334° Northwest 426 490 32,700 720 Climbing FlightAware
09:23AM 60.3800 6.9750 334° Northwest 432 497 33,300 720 Climbing FlightAware
09:24AM 60.4510 6.9050 334° Northwest 430 495 33,800 480 Climbing FlightAware
09:25AM 60.5340 6.8220 334° Northwest 435 501 34,000 120 Climbing FlightAware
09:25AM 60.6070 6.7480 334° Northwest 446 513 34,000  Level FlightAware
09:26AM 60.6900 6.6640 334° Northwest 448 516 34,000  Level FlightAware
09:27AM 60.7610 6.5920 334° Northwest 437 503 34,000  Level FlightAware
09:28AM 60.8370 6.5140 333° Northwest 446 513 34,000  Level FlightAware
09:28AM 60.9210 6.4280 334° Northwest 448 516 34,000  Level FlightAware
09:29AM 60.9900 6.3570 333° Northwest 449 517 34,000  Level FlightAware
09:30AM 61.0680 6.2750 333° Northwest 452 520 34,000  Level FlightAware
09:30AM 61.1520 6.1870 333° Northwest 450 518 34,000  Level FlightAware
09:31AM 61.2260 6.1090 333° Northwest 438 504 34,000  Level FlightAware
09:32AM 61.3100 6.0200 333° Northwest 438 504 34,000  Level FlightAware
09:32AM 61.3810 5.9450 333° Northwest 439 505 34,000  Level FlightAware
09:33AM 61.4540 5.8680 333° Northwest 450 518 34,000  Level FlightAware
09:34AM 61.5400 5.7740 332° Northwest 456 525 34,000  Level FlightAware
09:35AM 61.6150 5.6940 333° Northwest 450 518 34,000  Level FlightAware
09:35AM 61.6990 5.6020 333° Northwest 453 521 34,000  Level FlightAware
09:36AM 61.7720 5.5220 333° Northwest 454 522 34,000  Level FlightAware
09:37AM 61.8600 5.4250 333° Northwest 455 524 34,000  Level FlightAware
09:37AM 61.9370 5.3400 333° Northwest 453 521 34,000  Level FlightAware
09:38AM 62.0120 5.2570 333° Northwest 455 524 34,000  Level FlightAware
09:39AM 62.0980 5.1600 332° Northwest 458 527 34,000  Level FlightAware
09:39AM 62.1710 5.0780 332° Northwest 457 526 34,000  Level FlightAware
09:40AM 62.2490 4.9900 332° Northwest 455 524 34,000  Level FlightAware
09:41AM 62.3330 4.8940 332° Northwest 456 525 34,000  Level FlightAware
09:42AM 62.4080 4.8070 332° Northwest 456 525 34,000  Level FlightAware
09:42AM 62.4950 4.7070 332° Northwest 458 527 34,000  Level FlightAware
09:43AM 62.5690 4.6210 332° Northwest 457 526 34,000  Level FlightAware
09:44AM 62.6410 4.5370 332° Northwest 456 525 34,000  Level FlightAware
09:45AM 62.7440 4.4160 332° Northwest 456 525 34,000  Level FlightAware
09:46AM 62.8560 4.2820 331° Northwest 461 531 34,000  Level FlightAware
09:46AM 62.9350 4.1880 332° Northwest 461 531 34,000  Level FlightAware
09:47AM 63.0180 4.0890 332° Northwest 461 531 34,000  Level FlightAware
09:48AM 63.1190 3.9660 331° Northwest 462 532 34,000  Level FlightAware
09:48AM 63.1860 3.8840 331° Northwest 461 531 34,000  Level FlightAware
09:49AM 63.2720 3.7790 331° Northwest 459 528 34,000  Level FlightAware
09:50AM 63.3460 3.6870 331° Northwest 458 527 34,000  Level FlightAware
09:51AM 63.4250 3.5890 331° Northwest 459 528 34,000  Level FlightAware
09:51AM 63.4800 3.5200 331° Northwest 458 527 34,000  Level FlightAware
09:52AM 63.5930 3.3770 331° Northwest 461 531 34,000  Level FlightAware
09:53AM 63.6660 3.2830 330° Northwest 461 531 34,000  Level FlightAware
09:54AM 63.7620 3.1620 331° Northwest 463 533 34,000  Level FlightAware
09:55AM 63.8410 3.0590 330° Northwest 463 533 34,000  Level FlightAware
09:55AM 63.9040 2.9760 330° Northwest 463 533 34,000  Level FlightAware
09:56AM 63.9670 2.8930 330° Northwest 463 533 34,000  Level FlightAware
09:57AM 64.0300 2.8100 330° Northwest 463 533 34,000  Level FlightAware
09:57AM 64.0930 2.7270 330° Northwest 463 533 34,000  Level FlightAware
09:58AM 64.1720 2.6230 330° Northwest 463 533 34,000  Level FlightAware
09:59AM 64.2350 2.5390 330° Northwest 463 533 34,000  Level FlightAware
09:59AM 64.2980 2.4550 330° Northwest 463 533 34,000  Level FlightAware
10:00AM 64.3610 2.3710 330° Northwest 463 533 34,000  Level FlightAware
10:01AM 64.4400 2.2660 330° Northwest 463 533 34,000  Level FlightAware
10:02AM 64.5030 2.1810 330° Northwest 463 533 34,000  Level FlightAware
10:02AM 64.5660 2.0960 330° Northwest 463 533 34,000  Level FlightAware
10:03AM 64.6290 2.0110 330° Northwest 463 533 34,000  Level FlightAware
10:06AM 64.8400 1.4341 311° West  Level Estimated
10:07AM 64.9221 1.2055 310° West  Level Estimated
10:08AM 65.0039 0.9754 310° West  Level Estimated
10:09AM 65.0853 0.7439 310° West  Level Estimated
10:10AM 65.1664 0.5110 310° West  Level Estimated
10:11AM 65.2471 0.2766 309° West  Level Estimated
10:12AM 65.3274 0.0409 309° West  Level Estimated
10:13AM 65.4074 -0.1963 309° West  Level Estimated
10:14AM 65.4870 -0.4350 309° West  Level Estimated
10:15AM 65.5662 -0.6751 309° West  Level Estimated
10:16AM 65.6450 -0.9167 308° West  Level Estimated
10:17AM 65.7234 -1.1598 308° West  Level Estimated
10:18AM 65.8015 -1.4043 308° West  Level Estimated
10:19AM 65.8792 -1.6503 308° West  Level Estimated
10:20AM 65.9564 -1.8978 308° West  Level Estimated
10:21AM 66.0333 -2.1468 307° West  Level Estimated
10:22AM 66.1098 -2.3973 307° West  Level Estimated
10:23AM 66.1858 -2.6493 307° West  Level Estimated
10:24AM 66.2615 -2.9028 307° West  Level Estimated
10:25AM 66.3367 -3.1579 306° West  Level Estimated
10:26AM 66.4115 -3.4144 306° West  Level Estimated
10:27AM 66.4859 -3.6725 306° West  Level Estimated
10:28AM 66.5598 -3.9322 306° West  Level Estimated
10:29AM 66.6334 -4.1934 305° West  Level Estimated
10:30AM 66.7065 -4.4561 305° West  Level Estimated
10:31AM 66.7791 -4.7204 305° West  Level Estimated
10:32AM 66.8513 -4.9863 305° West  Level Estimated
10:33AM 66.9230 -5.2537 304° West  Level Estimated
10:34AM 66.9943 -5.5227 304° West  Level Estimated
10:35AM 67.0652 -5.7933 304° West  Level Estimated
10:36AM 67.1356 -6.0655 304° West  Level Estimated
10:37AM 67.2055 -6.3392 303° West  Level Estimated
10:38AM 67.2749 -6.6146 303° West  Level Estimated
10:39AM 67.3439 -6.8915 303° West  Level Estimated
10:40AM 67.4124 -7.1700 303° West  Level Estimated
10:41AM 67.4804 -7.4502 302° West  Level Estimated
10:42AM 67.5479 -7.7319 302° West  Level Estimated
10:43AM 67.6150 -8.0152 302° West  Level Estimated
10:44AM 67.6815 -8.3002 302° West  Level Estimated
10:45AM 67.7475 -8.5867 301° West  Level Estimated
10:46AM 67.8131 -8.8749 301° West  Level Estimated
10:47AM 67.8781 -9.1647 301° West  Level Estimated
10:48AM 67.9426 -9.4561 301° West  Level Estimated
10:49AM 68.0066 -9.7491 300° West  Level Estimated
10:50AM 68.0701 -10.0437 300° West  Level Estimated
10:51AM 68.1330 -10.3400 300° West  Level Estimated
10:52AM 68.1954 -10.6378 300° West  Level Estimated
10:53AM 68.2573 -10.9373 299° West  Level Estimated
10:54AM 68.3186 -11.2384 299° West  Level Estimated
10:55AM 68.3794 -11.5412 299° West  Level Estimated
10:56AM 68.4396 -11.8455 298° West  Level Estimated
10:57AM 68.4993 -12.1515 298° West  Level Estimated
10:58AM 68.5584 -12.4590 298° West  Level Estimated
10:59AM 68.6169 -12.7682 298° West  Level Estimated
11:00AM 68.6749 -13.0790 297° West  Level Estimated
11:01AM 68.7323 -13.3914 297° West  Level Estimated
11:02AM 68.7892 -13.7054 297° West  Level Estimated
11:03AM 68.8454 -14.0210 296° West  Level Estimated
11:04AM 68.9011 -14.3383 296° West  Level Estimated
11:05AM 68.9561 -14.6571 296° West  Level Estimated
11:06AM 69.0106 -14.9774 296° West  Level Estimated
11:07AM 69.0645 -15.2994 295° West  Level Estimated
11:08AM 69.1177 -15.6230 295° West  Level Estimated
11:09AM 69.1703 -15.9481 295° West  Level Estimated
11:10AM 69.2224 -16.2748 294° West  Level Estimated
11:11AM 69.2738 -16.6030 294° West  Level Estimated
11:12AM 69.3246 -16.9328 294° West  Level Estimated
11:13AM 69.3747 -17.2641 293° West  Level Estimated
11:14AM 69.4242 -17.5970 293° West  Level Estimated
11:15AM 69.4731 -17.9314 293° West  Level Estimated
11:16AM 69.5214 -18.2673 292° West  Level Estimated
11:17AM 69.5689 -18.6047 292° West  Level Estimated
11:18AM 69.6159 -18.9436 292° West  Level Estimated
11:19AM 69.6622 -19.2841 292° West  Level Estimated
11:20AM 69.7078 -19.6259 291° West  Level Estimated
11:21AM 69.7527 -19.9693 291° West  Level Estimated
11:22AM 69.7970 -20.3141 291° West  Level Estimated
11:23AM 69.8406 -20.6603 290° West  Level Estimated
11:24AM 69.8835 -21.0080 290° West  Level Estimated
11:25AM 69.9258 -21.3571 290° West  Level Estimated
11:26AM 69.9673 -21.7076 289° West  Level Estimated
11:27AM 70.0082 -22.0594 289° West  Level Estimated
11:28AM 70.0483 -22.4127 289° West  Level Estimated
11:29AM 70.0878 -22.7673 288° West  Level Estimated
11:30AM 70.1265 -23.1232 288° West  Level Estimated
11:31AM 70.1646 -23.4804 288° West  Level Estimated
11:32AM 70.2019 -23.8390 287° West  Level Estimated
11:33AM 70.2385 -24.1988 287° West  Level Estimated
11:34AM 70.2744 -24.5599 287° West  Level Estimated
11:35AM 70.3096 -24.9223 286° West  Level Estimated
11:36AM 70.3440 -25.2859 286° West  Level Estimated
11:37AM 70.3777 -25.6507 286° West  Level Estimated
11:38AM 70.4107 -26.0167 285° West  Level Estimated
11:39AM 70.4429 -26.3839 285° West  Level Estimated
11:40AM 70.4744 -26.7522 285° West  Level Estimated
11:41AM 70.5051 -27.1217 284° West  Level Estimated
11:42AM 70.5351 -27.4922 284° West  Level Estimated
11:43AM 70.5643 -27.8639 283° West  Level Estimated
11:44AM 70.5928 -28.2366 283° West  Level Estimated
11:45AM 70.6205 -28.6103 283° West  Level Estimated
11:46AM 70.6474 -28.9851 282° West  Level Estimated
11:47AM 70.6736 -29.3609 282° West  Level Estimated
11:48AM 70.6990 -29.7376 282° West  Level Estimated
11:49AM 70.7236 -30.1152 281° West  Level Estimated
11:50AM 70.7475 -30.4938 281° West  Level Estimated
11:51AM 70.7705 -30.8733 281° West  Level Estimated
11:52AM 70.7928 -31.2536 280° West  Level Estimated
11:53AM 70.8143 -31.6348 280° West  Level Estimated
11:54AM 70.8350 -32.0167 280° West  Level Estimated
11:55AM 70.8549 -32.3995 279° West  Level Estimated
11:56AM 70.8741 -32.7830 279° West  Level Estimated
11:57AM 70.8924 -33.1672 278° West  Level Estimated
11:58AM 70.9099 -33.5521 278° West  Level Estimated
11:59AM 70.9267 -33.9377 278° West  Level Estimated
12:00PM 70.9426 -34.3239 277° West  Level Estimated
12:01PM 70.9577 -34.7107 277° West  Level Estimated
12:02PM 70.9720 -35.0981 277° West  Level Estimated
12:03PM 70.9855 -35.4861 276° West  Level Estimated
12:04PM 70.9982 -35.8745 276° West  Level Estimated
12:05PM 71.0101 -36.2635 276° West  Level Estimated
12:06PM 71.0212 -36.6529 275° West  Level Estimated
12:07PM 71.0314 -37.0427 275° West  Level Estimated
12:08PM 71.0409 -37.4329 274° West  Level Estimated
12:09PM 71.0495 -37.8235 274° West  Level Estimated
12:10PM 71.0573 -38.2144 274° West  Level Estimated
12:11PM 71.0643 -38.6056 273° West  Level Estimated
12:12PM 71.0704 -38.9970 273° West  Level Estimated
12:13PM 71.0758 -39.3887 273° West  Level Estimated
12:14PM 71.0803 -39.7806 272° West  Level Estimated
12:15PM 71.0840 -40.1726 272° West  Level Estimated
12:16PM 71.0869 -40.5648 271° West  Level Estimated
12:17PM 71.0889 -40.9571 271° West  Level Estimated
12:18PM 71.0901 -41.3494 271° West  Level Estimated
12:19PM 71.0906 -41.7418 270° West  Level Estimated
12:20PM 71.0901 -42.1342 270° West  Level Estimated
12:21PM 71.0889 -42.5265 270° West  Level Estimated
12:22PM 71.0868 -42.9188 269° West  Level Estimated
12:23PM 71.0839 -43.3109 269° West  Level Estimated
12:24PM 71.0802 -43.7030 269° West  Level Estimated
12:25PM 71.0757 -44.0948 268° West  Level Estimated
12:26PM 71.0703 -44.4865 268° West  Level Estimated
12:27PM 71.0641 -44.8780 267° West  Level Estimated
12:28PM 71.0571 -45.2692 267° West  Level Estimated
12:29PM 71.0493 -45.6600 267° West  Level Estimated
12:30PM 71.0407 -46.0506 266° West  Level Estimated
12:31PM 71.0312 -46.4408 266° West  Level Estimated
12:32PM 71.0210 -46.8306 266° West  Level Estimated
12:33PM 71.0099 -47.2200 265° West  Level Estimated
12:34PM 70.9980 -47.6090 265° West  Level Estimated
12:35PM 70.9853 -47.9974 264° West  Level Estimated
12:36PM 70.9717 -48.3853 264° West  Level Estimated
12:37PM 70.9574 -48.7727 264° West  Level Estimated
12:38PM 70.9423 -49.1595 263° West  Level Estimated
12:39PM 70.9263 -49.5457 263° West  Level Estimated
12:40PM 70.9096 -49.9313 263° West  Level Estimated
12:41PM 70.8921 -50.3162 262° West  Level Estimated
12:42PM 70.8737 -50.7004 262° West  Level Estimated
12:43PM 70.8546 -51.0839 262° West  Level Estimated
12:44PM 70.8346 -51.4666 261° West  Level Estimated
12:45PM 70.8139 -51.8486 261° West  Level Estimated
12:46PM 70.7924 -52.2297 260° West  Level Estimated
12:47PM 70.7701 -52.6101 260° West  Level Estimated
12:48PM 70.7470 -52.9895 260° West  Level Estimated
12:49PM 70.7232 -53.3681 259° West  Level Estimated
12:50PM 70.6985 -53.7457 259° West  Level Estimated
12:51PM 70.6731 -54.1224 259° West  Level Estimated
12:52PM 70.6469 -54.4981 258° West  Level Estimated
12:53PM 70.6200 -54.8729 258° West  Level Estimated
12:54PM 70.5923 -55.2466 258° West  Level Estimated
12:55PM 70.5638 -55.6193 257° West  Level Estimated
12:56PM 70.5346 -55.9909 257° West  Level Estimated
12:57PM 70.5046 -56.3615 257° West  Level Estimated
12:58PM 70.4738 -56.7309 256° West  Level Estimated
12:59PM 70.4423 -57.0992 256° West  Level Estimated
01:00PM 70.4101 -57.4663 255° West  Level Estimated
01:01PM 70.3771 -57.8323 255° West  Level Estimated
01:02PM 70.3434 -58.1971 255° West  Level Estimated
01:03PM 70.3089 -58.5607 254° West  Level Estimated
01:04PM 70.2738 -58.9230 254° West  Level Estimated
01:05PM 70.2378 -59.2841 254° West  Level Estimated
01:06PM 70.2012 -59.6439 253° West  Level Estimated
01:07PM 70.1639 -60.0025 253° West  Level Estimated
01:08PM 70.1258 -60.3597 253° West  Level Estimated
01:09PM 70.0871 -60.7156 252° West  Level Estimated
01:10PM 70.0476 -61.0702 252° West  Level Estimated
01:11PM 70.0074 -61.4234 252° West  Level Estimated
01:12PM 69.9665 -61.7752 251° West  Level Estimated
01:13PM 69.9250 -62.1257 251° West  Level Estimated
01:14PM 69.8827 -62.4747 251° West  Level Estimated
01:15PM 69.8398 -62.8223 250° West  Level Estimated
01:16PM 69.7962 -63.1686 250° West  Level Estimated
01:17PM 69.7519 -63.5133 250° West  Level Estimated
01:18PM 69.7069 -63.8567 249° West  Level Estimated
01:19PM 69.6613 -64.1985 249° West  Level Estimated
01:20PM 69.6150 -64.5389 249° West  Level Estimated
01:21PM 69.5681 -64.8778 248° West  Level Estimated
01:22PM 69.5205 -65.2152 248° West  Level Estimated
01:23PM 69.4709 -65.5600 248° West  Level Estimated
01:24PM 69.4207 -65.9032 248° West  Level Estimated
01:25PM 69.3698 -66.2448 247° West  Level Estimated
01:26PM 69.3183 -66.5848 247° West  Level Estimated
01:27PM 69.2660 -66.9232 247° West  Level Estimated
01:28PM 69.2132 -67.2599 246° West  Level Estimated
01:29PM 69.1596 -67.5950 246° West  Level Estimated
01:30PM 69.1054 -67.9284 246° West  Level Estimated
01:31PM 69.0506 -68.2602 245° Southwest  Level Estimated
01:32PM 68.9951 -68.5903 245° Southwest  Level Estimated
01:33PM 68.9390 -68.9188 245° Southwest  Level Estimated
01:34PM 68.8823 -69.2455 244° Southwest  Level Estimated
01:35PM 68.8249 -69.5706 244° Southwest  Level Estimated
01:36PM 68.7670 -69.8940 244° Southwest  Level Estimated
01:37PM 68.7084 -70.2157 243° Southwest  Level Estimated
01:38PM 68.6492 -70.5358 243° Southwest  Level Estimated
01:39PM 68.5894 -70.8541 243° Southwest  Level Estimated
01:40PM 68.5290 -71.1707 243° Southwest  Level Estimated
01:41PM 68.4680 -71.4856 242° Southwest  Level Estimated
01:42PM 68.4065 -71.7989 242° Southwest  Level Estimated
01:43PM 68.3443 -72.1104 242° Southwest  Level Estimated
01:44PM 68.2816 -72.4202 241° Southwest  Level Estimated
01:45PM 68.2183 -72.7283 241° Southwest  Level Estimated
01:46PM 68.1544 -73.0347 241° Southwest  Level Estimated
01:47PM 68.0900 -73.3394 241° Southwest  Level Estimated
01:48PM 68.0250 -73.6424 240° Southwest  Level Estimated
01:49PM 67.9594 -73.9437 240° Southwest  Level Estimated
01:50PM 67.8933 -74.2433 240° Southwest  Level Estimated
01:51PM 67.8267 -74.5411 239° Southwest  Level Estimated
01:52PM 67.7595 -74.8373 239° Southwest  Level Estimated
01:53PM 67.6918 -75.1318 239° Southwest  Level Estimated
01:54PM 67.6236 -75.4245 239° Southwest  Level Estimated
01:55PM 67.5548 -75.7156 238° Southwest  Level Estimated
01:56PM 67.4855 -76.0050 238° Southwest  Level Estimated
01:57PM 67.4157 -76.2927 238° Southwest  Level Estimated
01:58PM 67.3454 -76.5787 238° Southwest  Level Estimated
01:59PM 67.2746 -76.8631 237° Southwest  Level Estimated
02:00PM 67.2033 -77.1457 237° Southwest  Level Estimated
02:01PM 67.1315 -77.4267 237° Southwest  Level Estimated
02:02PM 67.0592 -77.7060 237° Southwest  Level Estimated
02:03PM 66.9864 -77.9836 236° Southwest  Level Estimated
02:04PM 66.9132 -78.2596 236° Southwest  Level Estimated
02:05PM 66.8394 -78.5339 236° Southwest  Level Estimated
02:06PM 66.7652 -78.8066 235° Southwest  Level Estimated
02:07PM 66.6905 -79.0776 235° Southwest  Level Estimated
02:08PM 66.6154 -79.3470 235° Southwest  Level Estimated
02:09PM 66.5398 -79.6147 235° Southwest  Level Estimated
02:10PM 66.4638 -79.8809 234° Southwest  Level Estimated
02:11PM 66.3873 -80.1453 234° Southwest  Level Estimated
02:12PM 66.3103 -80.4082 234° Southwest  Level Estimated
02:13PM 66.2329 -80.6695 234° Southwest  Level Estimated
02:14PM 66.1551 -80.9292 234° Southwest  Level Estimated
02:15PM 66.0768 -81.1873 233° Southwest  Level Estimated
02:16PM 65.9981 -81.4437 233° Southwest  Level Estimated
02:17PM 65.9190 -81.6987 233° Southwest  Level Estimated
02:18PM 65.8395 -81.9520 233° Southwest  Level Estimated
02:19PM 65.7595 -82.2038 232° Southwest  Level Estimated
02:20PM 65.6792 -82.4540 232° Southwest  Level Estimated
02:21PM 65.5984 -82.7026 232° Southwest  Level Estimated
02:22PM 65.5172 -82.9497 232° Southwest  Level Estimated
02:23PM 65.4357 -83.1953 231° Southwest  Level Estimated
02:24PM 65.3537 -83.4393 231° Southwest  Level Estimated
02:25PM 65.2714 -83.6819 231° Southwest  Level Estimated
02:26PM 65.1886 -83.9229 231° Southwest  Level Estimated
02:27PM 65.1055 -84.1624 231° Southwest  Level Estimated
02:28PM 65.0220 -84.4004 230° Southwest  Level Estimated
02:29PM 64.9381 -84.6369 230° Southwest  Level Estimated
02:30PM 64.8539 -84.8719 230° Southwest  Level Estimated
02:31PM 64.7692 -85.1055 230° Southwest  Level Estimated
02:32PM 64.6842 -85.3376 229° Southwest  Level Estimated
02:33PM 64.5989 -85.5683 229° Southwest  Level Estimated
02:34PM 64.5132 -85.7975 229° Southwest  Level Estimated
02:35PM 64.4271 -86.0253 229° Southwest  Level Estimated
02:36PM 64.3407 -86.2516 229° Southwest  Level Estimated
02:37PM 64.2540 -86.4765 228° Southwest  Level Estimated
02:38PM 64.1668 -86.7000 228° Southwest  Level Estimated
02:39PM 64.0794 -86.9221 228° Southwest  Level Estimated
02:40PM 63.9916 -87.1429 228° Southwest  Level Estimated
02:41PM 63.9035 -87.3622 228° Southwest  Level Estimated
02:42PM 63.8151 -87.5801 227° Southwest  Level Estimated
02:43PM 63.7263 -87.7967 227° Southwest  Level Estimated
02:44PM 63.6372 -88.0120 227° Southwest  Level Estimated
02:45PM 63.5478 -88.2259 227° Southwest  Level Estimated
02:46PM 63.4581 -88.4384 227° Southwest  Level Estimated
02:47PM 63.3680 -88.6496 226° Southwest  Level Estimated
02:48PM 63.2777 -88.8595 226° Southwest  Level Estimated
02:49PM 63.1870 -89.0681 226° Southwest  Level Estimated
02:50PM 63.0961 -89.2754 226° Southwest  Level Estimated
02:51PM 63.0048 -89.4814 226° Southwest  Level Estimated
02:52PM 62.9132 -89.6860 226° Southwest  Level Estimated
02:53PM 62.8214 -89.8895 225° Southwest  Level Estimated
02:54PM 62.7293 -90.0916 225° Southwest  Level Estimated
02:55PM 62.6368 -90.2925 225° Southwest  Level Estimated
02:56PM 62.5441 -90.4921 225° Southwest  Level Estimated
02:57PM 62.4511 -90.6905 225° Southwest  Level Estimated
02:58PM 62.3578 -90.8877 224° Southwest  Level Estimated
02:59PM 62.2643 -91.0836 224° Southwest  Level Estimated
03:00PM 62.1704 -91.2784 224° Southwest  Level Estimated
03:01PM 62.0763 -91.4719 224° Southwest  Level Estimated
03:02PM 61.9820 -91.6642 224° Southwest  Level Estimated
03:03PM 61.8873 -91.8553 224° Southwest  Level Estimated
03:04PM 61.7924 -92.0453 223° Southwest  Level Estimated
03:05PM 61.6973 -92.2341 223° Southwest  Level Estimated
03:06PM 61.6018 -92.4217 223° Southwest  Level Estimated
03:07PM 61.5062 -92.6082 223° Southwest  Level Estimated
03:08PM 61.4102 -92.7935 223° Southwest  Level Estimated
03:09PM 61.3141 -92.9777 223° Southwest  Level Estimated
03:10PM 61.2176 -93.1607 222° Southwest  Level Estimated
03:11PM 61.1210 -93.3427 222° Southwest  Level Estimated
03:12PM 61.0240 -93.5235 222° Southwest  Level Estimated
03:13PM 60.9269 -93.7032 222° Southwest  Level Estimated
03:14PM 60.8295 -93.8819 222° Southwest  Level Estimated
03:15PM 60.7319 -94.0594 222° Southwest  Level Estimated
03:16PM 60.6340 -94.2359 222° Southwest  Level Estimated
03:17PM 60.5359 -94.4113 221° Southwest  Level Estimated
03:18PM 60.4376 -94.5856 221° Southwest  Level Estimated
03:19PM 60.3390 -94.7589 221° Southwest  Level Estimated
03:20PM 60.2403 -94.9311 221° Southwest  Level Estimated
03:21PM 60.1413 -95.1023 221° Southwest  Level Estimated
03:22PM 60.0421 -95.2725 221° Southwest  Level Estimated
03:23PM 59.9426 -95.4416 220° Southwest  Level Estimated
03:24PM 59.8430 -95.6098 220° Southwest  Level Estimated
03:25PM 59.7431 -95.7769 220° Southwest  Level Estimated
03:25PM 62.5833 -105.0000 219° Southwest 480 552 36,000  Level Edmonton Center
03:26PM 59.6431 -95.9430 220° Southwest  Level Estimated
03:26PM 62.4833 -105.1000 205° Southwest 460 529 36,000  Level Edmonton Center
03:27PM 59.5428 -96.1082 220° Southwest  Level Estimated
03:27PM 62.3667 -105.2500 211° Southwest 460 529 36,000  Level Edmonton Center
03:28PM 59.4423 -96.2724 220° Southwest  Level Estimated
03:28PM 62.2500 -105.4000 211° Southwest 460 529 36,000  Level Edmonton Center
03:29PM 59.3416 -96.4356 220° Southwest  Level Estimated
03:29PM 62.1500 -105.5333 212° Southwest 460 529 36,000  Level Edmonton Center
03:30PM 59.2407 -96.5978 219° Southwest  Level Estimated
03:30PM 62.0333 -105.6833 211° Southwest 470 541 36,000  Level Edmonton Center
03:31PM 59.1396 -96.7591 219° Southwest  Level Estimated
03:31PM 61.9000 -105.8167 205° Southwest 470 541 36,000  Level Edmonton Center
03:32PM 61.7833 -105.9667 211° Southwest 470 541 36,000  Level Edmonton Center
03:33PM 61.6667 -106.1000 208° Southwest 470 541 36,000  Level Edmonton Center
03:34PM 61.5667 -106.2333 212° Southwest 460 529 36,000  Level Edmonton Center
03:35PM 61.4500 -106.3833 212° Southwest 470 541 36,000  Level Edmonton Center
03:36PM 61.3167 -106.5167 206° Southwest 470 541 36,000  Level Edmonton Center
03:37PM 61.2167 -106.6500 213° Southwest 470 541 36,000  Level Edmonton Center
03:38PM 61.1000 -106.7500 203° Southwest 470 541 36,000  Level Edmonton Center
03:39PM 60.9833 -106.8833 209° Southwest 470 541 36,000  Level Edmonton Center
03:40PM 60.8833 -107.0167 213° Southwest 470 541 36,000  Level Edmonton Center
03:41PM 60.7500 -107.1500 206° Southwest 470 541 36,000  Level Edmonton Center
03:42PM 60.6333 -107.2833 209° Southwest 470 541 36,000  Level Edmonton Center
03:43PM 60.5167 -107.4000 206° Southwest 470 541 36,000  Level Edmonton Center
03:44PM 60.4167 -107.5333 213° Southwest 470 541 36,000  Level Edmonton Center
03:45PM 60.2667 -107.6667 204° Southwest 470 541 36,000  Level Edmonton Center
03:46PM 60.1500 -107.7833 206° Southwest 470 541 36,000  Level Edmonton Center
03:47PM 60.0500 -107.9167 214° Southwest 480 552 36,000  Level Edmonton Center
03:48PM 59.9167 -108.0333 204° Southwest 480 552 36,000  Level Edmonton Center
03:49PM 59.8000 -108.1667 210° Southwest 480 552 36,000  Level Edmonton Center
03:50PM 59.6833 -108.2833 207° Southwest 480 552 36,000  Level Edmonton Center
03:51PM 59.5500 -108.4167 207° Southwest 480 552 36,000  Level Edmonton Center
03:52PM 59.4500 -108.5333 211° Southwest 480 552 36,000  Level Edmonton Center
03:53PM 59.3333 -108.6500 207° Southwest 480 552 36,000  Level Edmonton Center
03:54PM 59.2000 -108.7667 204° Southwest 470 541 36,000  Level Edmonton Center
03:55PM 59.0833 -108.8833 207° Southwest 470 541 36,000  Level Edmonton Center
03:56PM 58.9667 -109.0167 211° Southwest 470 541 36,000  Level Edmonton Center
03:57PM 58.8500 -109.1333 207° Southwest 480 552 36,000  Level Edmonton Center
03:58PM 58.7167 -109.2500 204° Southwest 480 552 36,000  Level Edmonton Center
03:59PM 58.6000 -109.3500 204° Southwest 480 552 36,000  Level Edmonton Center
04:00PM 58.4833 -109.4667 208° Southwest 480 552 36,000  Level Edmonton Center
04:01PM 58.3667 -109.5833 208° Southwest 480 552 36,000  Level Edmonton Center
04:02PM 58.2500 -109.7000 208° Southwest 480 552 36,000  Level Edmonton Center
04:03PM 58.1167 -109.8167 205° Southwest 480 552 36,000  Level Edmonton Center
04:04PM 58.0000 -109.9333 208° Southwest 480 552 36,000  Level Edmonton Center
04:05PM 57.8667 -110.0333 202° Southwest 480 552 36,000  Level Edmonton Center
04:06PM 57.7500 -110.1500 208° Southwest 480 552 36,000  Level Edmonton Center
04:07PM 57.6167 -110.2500 202° Southwest 480 552 36,000  Level Edmonton Center
04:08PM 57.5000 -110.3667 208° Southwest 490 564 36,000  Level Edmonton Center
04:09PM 57.4000 -110.4667 208° Southwest 490 564 36,000  Level Edmonton Center
04:10PM 57.2500 -110.6167 208° Southwest 490 564 36,000  Level Edmonton Center
04:11PM 57.1333 -110.7167 205° Southwest 490 564 36,000  Level Edmonton Center
04:12PM 57.0000 -110.8167 202° Southwest 490 564 36,000  Level Edmonton Center
04:13PM 56.8833 -110.9333 209° Southwest 490 564 36,000  Level Edmonton Center
04:14PM 56.7500 -111.0333 202° Southwest 490 564 36,000  Level Edmonton Center
04:15PM 56.6333 -111.1333 205° Southwest 490 564 36,000  Level Edmonton Center
04:16PM 56.5000 -111.2333 202° Southwest 490 564 36,000  Level Edmonton Center
04:17PM 56.3833 -111.3333 205° Southwest 480 552 36,000  Level Edmonton Center
04:18PM 56.2667 -111.4167 202° Southwest 480 552 36,000  Level Edmonton Center
04:19PM 56.1333 -111.4833 196° South 490 564 36,000  Level Edmonton Center
04:20PM 56.0000 -111.5833 203° Southwest 480 552 36,000  Level Edmonton Center
04:21PM 55.8667 -111.6500 196° South 480 552 36,000  Level Edmonton Center
04:22PM 55.7500 -111.7500 206° Southwest 480 552 36,000  Level Edmonton Center
04:23PM 55.6333 -111.8167 198° South 480 552 36,000  Level Edmonton Center
04:24PM 55.4833 -111.9167 201° Southwest 480 552 36,000  Level Edmonton Center
04:25PM 55.3667 -111.9833 198° South 490 564 36,000  Level Edmonton Center
04:26PM 55.2167 -112.0667 198° South 490 564 36,000  Level Edmonton Center
04:27PM 55.1000 -112.1333 198° South 490 564 36,000  Level Edmonton Center
04:28PM 54.9667 -112.2000 196° South 490 564 36,000  Level Edmonton Center
04:29PM 54.8333 -112.3000 203° Southwest 490 564 36,000  Level Edmonton Center
04:35PM 54.1310 -112.7000 203° Southwest 490 564 36,000  Level FlightAware
04:36PM 54.0440 -112.7490 198° South 488 562 36,000  Level FlightAware
04:36PM 53.9570 -112.7990 199° South 479 551 36,000  Level FlightAware
04:37PM 53.8610 -112.8530 198° South 478 550 36,000  Level FlightAware
04:38PM 53.7780 -112.9000 199° South 478 550 36,000  Level FlightAware
04:39PM 53.6810 -112.9540 198° South 478 550 36,000  Level FlightAware
04:39PM 53.5970 -113.0010 198° South 487 560 36,000  Level FlightAware
04:40PM 53.5000 -113.0560 199° South 476 548 36,000  Level FlightAware
04:41PM 53.4160 -113.1020 198° South 474 545 36,000  Level FlightAware
04:41PM 53.3330 -113.1480 198° South 472 543 36,000  Level FlightAware
04:42PM 53.2370 -113.2010 198° South 472 543 36,000  Level FlightAware
04:43PM 53.1540 -113.2460 198° South 473 544 36,000  Level FlightAware
04:43PM 53.0680 -113.2930 198° South 474 545 36,000  Level FlightAware
04:44PM 52.9740 -113.3440 198° South 475 547 36,000  Level FlightAware
04:45PM 52.8870 -113.3910 198° South 475 547 36,000  Level FlightAware
04:46PM 52.7930 -113.4410 198° South 474 545 36,000  Level FlightAware
04:46PM 52.7200 -113.4800 198° South 474 545 36,000  Level FlightAware
04:47PM 52.6240 -113.5310 198° South 472 543 36,000  Level FlightAware
04:48PM 52.5300 -113.5810 198° South 473 544 36,000  Level FlightAware
04:48PM 52.4430 -113.6270 198° South 475 547 36,000  Level FlightAware
04:49PM 52.3610 -113.6700 198° South 474 545 36,000  Level FlightAware
04:50PM 52.2650 -113.7200 198° South 475 547 36,000  Level FlightAware
04:50PM 52.1790 -113.7650 198° South 475 547 36,000  Level FlightAware
04:51PM 52.0940 -113.8090 198° South 474 545 36,000  Level FlightAware
04:52PM 51.9980 -113.8590 198° South 476 548 36,000  Level FlightAware
04:52PM 51.9140 -113.9020 198° South 477 549 36,000  Level FlightAware
04:53PM 51.8160 -113.9520 198° South 476 548 36,000  Level FlightAware
04:54PM 51.7350 -113.9940 198° South 476 548 36,000  Level FlightAware
04:55PM 51.6480 -114.0380 197° South 475 547 36,000  Level FlightAware
04:55PM 51.5510 -114.0880 198° South 476 548 36,000  Level FlightAware
04:56PM 51.4670 -114.1300 197° South 485 558 36,000  Level FlightAware
04:57PM 51.3690 -114.1790 197° South 486 559 36,000  Level FlightAware
04:57PM 51.2720 -114.2270 197° South 485 558 36,000  Level FlightAware
04:58PM 51.1850 -114.2710 198° South 476 548 36,000  Level FlightAware
04:59PM 51.1030 -114.3120 197° South 476 548 36,000  Level FlightAware
05:00PM 51.0060 -114.3590 197° South 485 558 36,000  Level FlightAware
05:00PM 50.9210 -114.4010 197° South 484 557 36,000  Level FlightAware
05:01PM 50.8360 -114.4430 197° South 485 558 36,000  Level FlightAware
05:02PM 50.7380 -114.4910 197° South 485 558 36,000  Level FlightAware
05:02PM 50.6440 -114.5360 197° South 487 560 36,000  Level FlightAware
05:03PM 50.5650 -114.5750 197° South 489 563 36,000  Level FlightAware
05:04PM 50.4690 -114.6210 197° South 488 562 36,000  Level FlightAware
05:04PM 50.3830 -114.6620 197° South 490 564 36,000  Level FlightAware
05:05PM 50.2870 -114.7080 197° South 485 558 36,000  Level FlightAware
05:06PM 50.1960 -114.7510 197° South 491 565 36,000  Level FlightAware
05:06PM 50.1090 -114.7930 197° South 491 565 36,000  Level FlightAware
05:07PM 50.0110 -114.8390 197° South 486 559 36,000  Level FlightAware
05:08PM 49.9250 -114.8800 197° South 486 559 36,000  Level FlightAware
05:09PM 49.8260 -114.9260 197° South 484 557 36,000  Level FlightAware
05:09PM 49.7410 -114.9660 197° South 485 558 36,000 60 Level FlightAware
05:10PM 49.6550 -115.0060 197° South 487 560 36,100 900 Climbing FlightAware
05:11PM 49.5610 -115.0490 197° South 487 560 37,300 1,260 Climbing FlightAware
05:11PM 49.4530 -115.0990 197° South 485 558 38,000 480 Climbing FlightAware
05:12PM 49.3670 -115.1390 197° South 487 560 38,000  Level FlightAware
05:13PM 49.2820 -115.1780 197° South 490 564 38,000  Level FlightAware
05:14PM 49.1970 -115.2170 197° South 490 564 38,000  Level FlightAware
05:14PM 49.1070 -115.2580 197° South 490 564 38,000  Level FlightAware
05:15PM 49.0150 -115.2990 196° South 490 564 38,000  Level FlightAware
05:16PM 48.9080 -115.3470 196° South 499 574 38,000  Level FlightAware
05:16PM 48.8210 -115.3870 197° South 501 577 38,000  Level FlightAware
05:17PM 48.7190 -115.4320 196° South 503 579 38,000  Level FlightAware
05:18PM 48.6550 -115.4610 197° South 502 578 38,000  Level FlightAware
05:18PM 48.5300 -115.5160 196° South 503 579 38,000  Level FlightAware
05:19PM 48.4450 -115.5540 197° South 503 579 38,000  Level FlightAware
05:20PM 48.3700 -115.5860 196° South 504 580 38,000  Level FlightAware
05:21PM 48.2740 -115.6280 196° South 504 580 38,000  Level FlightAware
05:21PM 48.1980 -115.6600 196° South 504 580 38,000  Level FlightAware
05:22PM 48.1220 -115.6930 196° South 504 580 38,000  Level FlightAware
05:23PM 48.0460 -115.7260 196° South 504 580 38,000  Level FlightAware
05:23PM 47.9700 -115.7580 196° South 504 580 38,000  Level FlightAware
05:24PM 47.8740 -115.7990 196° South 504 580 38,000  Level FlightAware
05:25PM 47.7980 -115.8320 196° South 504 580 38,000  Level FlightAware
05:25PM 47.7220 -115.8640 196° South 504 580 38,000  Level FlightAware
05:26PM 47.6460 -115.8970 196° South 504 580 38,000  Level FlightAware
05:27PM 47.5700 -115.9290 196° South 504 580 38,000  Level FlightAware
05:28PM 47.4740 -115.9700 196° South 504 580 38,000  Level FlightAware
05:28PM 47.3980 -116.0020 196° South 504 580 38,000  Level FlightAware
05:29PM 47.3220 -116.0340 196° South 504 580 38,000  Level FlightAware
05:29PM 47.0747 -116.1436 196° South 504 580 38,000  Level Seattle Center
05:30PM 46.9389 -116.1983 195° South 505 581 38,000  Level Seattle Center
05:31PM 46.8036 -116.2556 196° South 504 580 38,000  Level Seattle Center
05:32PM 46.6692 -116.3111 196° South 502 578 38,000  Level Seattle Center
05:33PM 46.5342 -116.3678 196° South 504 580 38,000  Level Seattle Center
05:34PM 46.3994 -116.4214 195° South 501 577 38,000  Level Seattle Center
05:35PM 46.2642 -116.4769 196° South 504 580 38,000  Level Seattle Center
05:36PM 46.1300 -116.5292 195° South 501 577 38,000  Level Seattle Center
05:37PM 45.9681 -116.5958 196° South 503 579 38,000  Level Seattle Center
05:38PM 45.8336 -116.6483 195° South 501 577 38,000  Level Seattle Center
05:40PM 45.7011 -116.7036 196° South 498 573 38,000  Level Seattle Center
05:41PM 45.5731 -116.7547 196° South 498 573 38,000  Level Seattle Center
05:42PM 45.4239 -116.8136 195° South 497 572 38,000  Level Seattle Center
05:43PM 45.2967 -116.8608 195° South 496 571 38,000  Level Seattle Center
05:44PM 45.1697 -116.9122 196° South 496 571 38,000  Level Seattle Center
05:44PM 45.0861 -116.9439 195° South 494 568 38,000  Level Salt Lake Center
05:45PM 44.9631 -116.9992 198° South 489 563 38,000  Level Salt Lake Center
05:46PM 44.8183 -117.0642 198° South 489 563 38,000  Level Salt Lake Center
05:47PM 44.6936 -117.1169 197° South 491 565 38,000  Level Salt Lake Center
05:48PM 44.6300 -117.1447 197° South 493 567 38,000  Level Seattle Center
05:48PM 44.5444 -117.1811 197° South 502 578 38,000  Level Salt Lake Center
05:49PM 44.4175 -117.2353 197° South 501 577 38,000  Level Salt Lake Center
05:50PM 44.2686 -117.2986 197° South 503 579 38,000  Level Salt Lake Center
05:51PM 44.1419 -117.3522 197° South 499 574 38,000  Level Salt Lake Center
05:52PM 43.9936 -117.4164 197° South 501 577 38,000  Level Salt Lake Center
05:53PM 43.8661 -117.4700 197° South 501 577 38,000  Level Salt Lake Center
05:54PM 43.7175 -117.5311 197° South 499 574 38,000  Level Salt Lake Center
05:55PM 43.5936 -117.5853 198° South 489 563 38,000  Level Salt Lake Center
05:57PM 43.4664 -117.6378 197° South 496 571 38,000  Level Salt Lake Center
05:58PM 43.3189 -117.6981 197° South 495 570 38,000  Level Salt Lake Center
05:59PM 43.1922 -117.7500 197° South 496 571 38,000  Level Salt Lake Center
06:00PM 43.0444 -117.8117 197° South 498 573 38,000  Level Salt Lake Center
06:01PM 42.9186 -117.8619 196° South 494 568 38,000  Level Salt Lake Center
06:02PM 42.7725 -117.9222 197° South 491 565 38,000  Level Salt Lake Center
06:03PM 42.6481 -117.9733 197° South 488 562 38,000  Level Salt Lake Center
06:04PM 42.5019 -118.0328 197° South 489 563 38,000  Level Salt Lake Center
06:05PM 42.3775 -118.0828 197° South 488 562 38,000  Level Salt Lake Center
06:06PM 42.2406 -118.1375 196° South 484 557 38,000  Level Salt Lake Center
06:07PM 42.1158 -118.1875 197° South 487 560 38,000  Level Salt Lake Center
06:08PM 41.9719 -118.2458 197° South 485 558 38,000  Level Salt Lake Center
06:09PM 41.8472 -118.2942 196° South 486 559 38,000  Level Salt Lake Center
06:10PM 41.7036 -118.3508 196° South 482 555 38,000  Level Salt Lake Center
06:11PM 41.5806 -118.3992 196° South 481 554 38,000  Level Salt Lake Center
06:12PM 41.4578 -118.4461 196° South 481 554 38,000  Level Salt Lake Center
06:13PM 41.3153 -118.5014 196° South 479 551 38,000  Level Salt Lake Center
06:14PM 41.1931 -118.5486 196° South 477 549 38,000  Level Salt Lake Center
06:15PM 41.0517 -118.6031 196° South 476 548 38,000  Level Salt Lake Center
06:16PM 40.9294 -118.6497 196° South 478 550 38,000  Level Salt Lake Center
06:17PM 40.7886 -118.7036 196° South 473 544 38,000  Level Salt Lake Center
06:18PM 40.6692 -118.7489 196° South 469 540 38,000  Level Salt Lake Center
06:19PM 40.5606 -118.7903 196° South 472 543 38,000  Level Oakland Center
06:20PM 40.4347 -118.8378 196° South 471 542 38,000  Level Oakland Center
06:21PM 40.2847 -118.8936 196° South 467 537 38,000  Level Oakland Center
06:22PM 40.1608 -118.9386 196° South 464 534 38,000 120 Level Oakland Center
06:28PM 39.4640 -119.1830 196° South 471 542 39,000 120 Climbing FlightAware
06:28PM 39.3840 -119.1970 188° South 481 554 39,000  Level FlightAware
06:29PM 39.2700 -119.2200 189° South 473 544 39,000  Level FlightAware
06:30PM 39.2110 -119.2330 190° South 480 552 39,000  Level FlightAware
06:31PM 39.1080 -119.2520 188° South 482 555 39,000  Level FlightAware
06:31PM 39.0150 -119.2680 188° South 39,000  Level FlightAware
06:33PM 38.7190 -119.3200 188° South 471 542 39,000  Level FlightAware
06:34PM 38.6200 -119.3380 188° South 470 541 39,000  Level FlightAware
06:35PM 38.5390 -119.3510 187° South 469 540 39,000  Level FlightAware
06:35PM 38.4400 -119.3690 188° South 466 536 39,000  Level FlightAware
06:36PM 38.3590 -119.3830 188° South 463 533 39,000  Level FlightAware
06:37PM 38.2710 -119.3980 188° South 463 533 39,000  Level FlightAware
06:37PM 38.1970 -119.4110 188° South 463 533 39,000  Level FlightAware
06:38PM 38.0910 -119.4290 188° South 463 533 39,000  Level FlightAware
06:39PM 38.0080 -119.4420 187° South 463 533 39,000  Level FlightAware
06:40PM 37.9090 -119.4600 188° South 464 534 39,000  Level FlightAware
06:40PM 37.8230 -119.4740 187° South 465 535 39,000  Level FlightAware
06:41PM 37.7250 -119.4910 188° South 467 537 39,000  Level FlightAware
06:42PM 37.6410 -119.5050 188° South 467 537 39,000  Level FlightAware
06:42PM 37.5540 -119.5200 188° South 468 539 39,000  Level FlightAware
06:43PM 37.4590 -119.5360 188° South 465 535 39,000  Level FlightAware
06:44PM 37.3730 -119.5500 187° South 464 534 39,000  Level FlightAware
06:45PM 37.2800 -119.5660 188° South 462 532 39,000  Level FlightAware
06:45PM 37.1970 -119.5800 188° South 458 527 39,000  Level FlightAware
06:46PM 37.1080 -119.5930 187° South 457 526 39,000  Level FlightAware
06:47PM 37.0150 -119.5970 182° South 459 528 39,000  Level FlightAware
06:47PM 36.9330 -119.5990 181° South 462 532 39,000  Level FlightAware
06:48PM 36.8460 -119.6000 181° South 463 533 39,000  Level FlightAware
06:49PM 36.7490 -119.6020 181° South 466 536 39,000  Level FlightAware
06:49PM 36.6600 -119.6030 181° South 466 536 39,000  Level FlightAware
06:50PM 36.5740 -119.6050 181° South 467 537 39,000  Level FlightAware
06:51PM 36.4780 -119.6060 180° South 467 537 39,000  Level FlightAware
06:51PM 36.3920 -119.6080 181° South 466 536 39,000  Level FlightAware
06:52PM 36.2960 -119.6090 180° South 466 536 39,000  Level FlightAware
06:53PM 36.2100 -119.6110 181° South 467 537 39,000  Level FlightAware
06:54PM 36.1110 -119.6130 181° South 469 540 39,000  Level FlightAware
06:54PM 36.0230 -119.6140 181° South 471 542 39,000  Level FlightAware
06:55PM 35.9480 -119.6150 181° South 471 542 39,000  Level FlightAware
06:56PM 35.8400 -119.6200 182° South 473 544 39,000  Level FlightAware
06:56PM 35.7510 -119.6230 182° South 473 544 39,000  Level FlightAware
06:57PM 35.6540 -119.6270 182° South 474 545 39,000  Level FlightAware
06:58PM 35.5640 -119.6300 182° South 475 547 39,000  Level FlightAware
06:58PM 35.4750 -119.6330 182° South 475 547 39,000 -780 Level FlightAware
06:59PM 35.3750 -119.6370 182° South 478 550 37,900 -1,500 Descending FlightAware
07:00PM 35.2570 -119.6290 177° South 468 539 36,500 -1,800 Descending FlightAware
07:01PM 35.1810 -119.5780 151° Southeast 464 534 35,100 -2,340 Descending FlightAware
07:02PM 35.1060 -119.5140 145° Southeast 466 536 33,200 -3,120 Descending FlightAware
07:02PM 35.0340 -119.4520 145° Southeast 477 549 30,700 -3,360 Descending FlightAware
07:03PM 34.9500 -119.3800 145° Southeast 474 545 28,500 -2,640 Descending FlightAware
07:04PM 34.8800 -119.3210 145° Southeast 462 532 27,000 -2,340 Descending FlightAware
07:04PM 34.8110 -119.2620 145° Southeast 451 519 25,400 -2,340 Descending FlightAware
07:05PM 34.7330 -119.1970 146° Southeast 436 502 23,700 -2,220 Descending FlightAware
07:06PM 34.6690 -119.1400 144° Southeast 424 488 22,300 -1,200 Descending FlightAware
07:06PM 34.6120 -119.0630 132° Southeast 400 460 22,000 -300 Descending FlightAware
07:07PM 34.5610 -119.0120 141° Southeast 399 459 21,900 -1,680 Descending FlightAware
07:08PM 34.4880 -118.9740 157° South 377 434 19,800 -1,860 Descending FlightAware
07:09PM 34.4180 -118.9190 147° Southeast 369 425 19,000 -1,080 Descending FlightAware
07:09PM 34.4180 -118.9220 270° West 356 410 18,100 -1,500 Descending FlightAware
07:10PM 34.3000 -118.8600 157° South 306 352 17,000 -2,580 Descending FlightAware
07:11PM 34.2320 -118.8360 164° South 299 344 14,300 -3,120 Descending FlightAware
07:11PM 34.1860 -118.8180 162° South 295 339 12,600 -2,340 Descending FlightAware
07:12PM 34.1240 -118.7960 164° South 256 295 11,000 -1,740 Descending FlightAware
07:13PM 34.0800 -118.7800 163° South 256 295 10,000 -1,140 Descending FlightAware
07:13PM 34.0650 -118.7710 154° Southeast 247 284 10,000  Level FlightAware
07:13PM 34.0520 -118.7540 133° Southeast 247 284 10,000  Level FlightAware
07:14PM 34.0410 -118.7030 105° East 251 289 10,000 -120 Level FlightAware
07:15PM 34.0360 -118.6600 98° East 250 288 9,900 -600 Descending FlightAware
07:15PM 34.0310 -118.6190 98° East 249 287 9,300 -1,320 Descending FlightAware
07:16PM 34.0260 -118.5830 100° East 248 285 8,700 -1,200 Descending FlightAware
07:16PM 34.0210 -118.5420 98° East 251 289 8,100 -1,440 Descending FlightAware
07:17PM 34.0160 -118.5030 99° East 255 293 7,400 -1,200 Descending FlightAware
07:17PM 34.0110 -118.4590 98° East 254 292 7,000 -420 Descending FlightAware
07:18PM 34.0140 -118.4210 85° East 255 293 7,000 -480 Level FlightAware
07:18PM 34.0180 -118.3840 83° East 256 295 6,600 -1,020 Descending FlightAware
07:19PM 34.0220 -118.3410 84° East 252 290 6,100 -1,140 Descending FlightAware
07:19PM 34.0250 -118.3090 84° East 249 287 5,600 -1,200 Descending FlightAware
07:19PM 34.0290 -118.2750 82° East 248 285 5,100 -1,440 Descending FlightAware
07:20PM 34.0350 -118.2180 83° East 224 258 4,300 -1,320 Descending FlightAware
07:20PM 34.0380 -118.1820 84° East 205 236 3,800 -840 Descending FlightAware
07:21PM 34.0420 -118.1500 81° East 194 223 3,500 -1,020 Descending FlightAware
07:21PM 34.0360 -118.1240 106° East 191 220 2,900 -1,380 Descending FlightAware
07:22PM 34.0280 -118.1180 148° Southeast 190 219 2,700 -900 Descending FlightAware
07:22PM 34.0220 -118.1160 165° South 190 219 2,600 -180 Descending FlightAware
07:22PM 34.0010 -118.1280 205° Southwest 192 221 2,600  Level FlightAware
07:23PM 33.9870 -118.1500 232° Southwest 195 224 2,600 -360 Level FlightAware
07:23PM 33.9750 -118.1790 243° Southwest 197 227 2,300 -420 Descending FlightAware
07:24PM 33.9710 -118.2110 261° West 192 221 2,200 -120 Descending FlightAware
07:24PM 33.9670 -118.2520 263° West 174 200 2,200  Level FlightAware
07:25PM 33.9650 -118.2740 264° West 167 192 2,200 -480 Level FlightAware
07:25PM 33.9630 -118.2990 264° West 167 192 1,800 -720 Descending FlightAware
07:26PM 33.9590 -118.3310 261° West 155 178 1,300 -720 Descending FlightAware
07:26PM 33.9580 -118.3480 266° West 146 168 1,000 -780 Descending FlightAware
07:27PM 33.9550 -118.3730 262° West 142 163 600 -780 Descending FlightAware
07:27PM 33.9530 -118.3940 263° West 139 160 300 -420 Descending FlightAware
07:28PM 33.9500 -118.4180 261° West 141 162 200 -180 Descending FlightAware
07:35PM 33.9425 -118.4081 228° Southwest  Level Estimated
07:36PM 33.9425 -118.4081 228° Southwest  Level Estimated